Highland, MI

6:48 PM EDT on June 22, 2017 (GMT -0400)
Dunham Lake | | Change Station

Elev 997 ft 42.65 °N, 83.68 °W | Updated 52 seconds ago

Mostly Cloudy
Mostly Cloudy
85.5 °F
Feels Like 90 °F
N
0.0
Wind Variable Wind from North
Gusts 0.0 mph

Today
High -- | Low -- °F
--% Chance of Precip.
Yesterday
High -- | Low -- °F
Precip. -- in
Pressure 29.79 in
Visibility 10.0 miles
Clouds Mostly Cloudy 4500 ft
Mostly Cloudy 14000 ft
Mostly Cloudy 20000 ft
Heat Index 90 °F
Dew Point 70 °F
Humidity 61%
Rainfall 0.00 in
Snow Depth Not available.
5:57 AM 9:16 PM
Waning Crescent, 2% visible
METAR KPTK 222153Z 22010KT 10SM BKN045 BKN140 BKN200 29/19 A2981 RMK AO2 SLP086 T02940194
Pressure 29.79 in
Visibility 10.0 miles
Clouds Mostly Cloudy 4500 ft
Mostly Cloudy 14000 ft
Mostly Cloudy 20000 ft
Heat Index 90 °F
Dew Point 70 °F
Humidity 61%
Rainfall 0.00 in
Snow Depth Not available.
5:57 AM 9:16 PM
Waning Crescent, 2% visible
METAR KPTK 222153Z 22010KT 10SM BKN045 BKN140 BKN200 29/19 A2981 RMK AO2 SLP086 T02940194

Get Severe Weather Alerts

Thanks for signing up!

Be on the lookout for a verification email in your inbox.

You'll start receiving the daily forecast at 6 AM.

×

10-Day Weather Forecast

Almanac

Astronomy

Jun. 22, 2017 Rise Set
Actual Time
Civil Twilight
Nautical Twilight
Astronomical Twilight
Moon
Length of Visible Light
Length of Day
Tomorrow will be .
, % of the Moon is Illuminated

Today's Extremes

State Highs State Lows

Community

WunderPhotos

Category 6

Welcome to Category 6. This is the collective home for Weather Underground's featured writeups by Dr. Jeff Masters (right), Bob Henson (left), Chris Burt, and other regular contributors.

Nearby

Air Quality

  Air Quality AQ Index Pollutant
Not available.

Snow Depth

Station Depth Elevation

Earthquake Activity

City Distance Mag. Time & Date
Minimum magnitude displayed is 2.5.

Coastal Water Temperatures

Place Temperature

Stations

Nearby Weather Stations

Station Location Temp. Windchill Dew Point Humidity Wind Precip. Elev Updated Type
                   

Watches & Warnings

There are currently no watches in effect.